createdAt,value
2017-10-04T00:00:09.447Z,0
2017-10-04T00:01:10.840Z,0
2017-10-04T00:02:12.263Z,0
2017-10-04T00:03:13.679Z,0
2017-10-04T00:04:15.090Z,0
2017-10-04T00:05:16.544Z,0
2017-10-04T00:06:17.952Z,0
2017-10-04T00:07:19.403Z,0
2017-10-04T00:08:20.822Z,0
2017-10-04T00:09:22.271Z,0
2017-10-04T00:10:23.691Z,0
2017-10-04T00:11:25.112Z,0
2017-10-04T00:12:26.522Z,0
2017-10-04T00:13:27.934Z,0
2017-10-04T00:14:29.395Z,0
2017-10-04T00:15:30.820Z,0
2017-10-04T00:16:32.210Z,0
2017-10-04T00:17:33.633Z,0
2017-10-04T00:18:35.043Z,0
2017-10-04T00:19:36.495Z,0
2017-10-04T00:20:37.939Z,0
2017-10-04T00:21:39.369Z,0
2017-10-04T00:22:40.784Z,0
2017-10-04T00:23:42.142Z,0
2017-10-04T00:24:43.546Z,0
2017-10-04T00:25:44.939Z,0
2017-10-04T00:26:46.352Z,0
2017-10-04T00:27:47.738Z,0
2017-10-04T00:28:49.187Z,0
2017-10-04T00:29:50.597Z,0
2017-10-04T00:30:52.048Z,0
2017-10-04T00:31:53.467Z,0
2017-10-04T00:32:54.881Z,0
2017-10-04T00:33:56.282Z,0
2017-10-04T00:34:57.677Z,0
2017-10-04T00:35:59.083Z,0
2017-10-04T00:37:00.468Z,0
2017-10-04T00:38:01.884Z,0
2017-10-04T00:39:03.340Z,0
2017-10-04T00:40:04.756Z,0
2017-10-04T00:41:06.185Z,0
2017-10-04T00:42:07.584Z,0
2017-10-04T00:43:08.995Z,0
2017-10-04T00:44:10.430Z,0
2017-10-04T00:45:11.835Z,0
2017-10-04T00:46:13.248Z,0
2017-10-04T00:47:14.636Z,0
2017-10-04T00:48:16.059Z,0
2017-10-04T00:49:17.506Z,0
2017-10-04T00:50:18.934Z,0
2017-10-04T00:51:20.340Z,0
2017-10-04T00:52:21.774Z,0
2017-10-04T00:53:23.192Z,0
2017-10-04T00:54:24.619Z,0
2017-10-04T00:55:26.025Z,0
2017-10-04T00:56:27.437Z,0
2017-10-04T00:57:28.893Z,0
2017-10-04T00:58:30.293Z,0
2017-10-04T00:59:31.718Z,0
2017-10-04T01:00:33.127Z,0
2017-10-04T01:01:34.562Z,0
2017-10-04T01:02:35.969Z,0
2017-10-04T01:03:37.414Z,0
2017-10-04T01:04:38.851Z,0
2017-10-04T01:05:40.267Z,0
2017-10-04T01:06:41.661Z,0
2017-10-04T01:07:43.082Z,0
2017-10-04T01:08:44.540Z,0
2017-10-04T01:09:45.952Z,0
2017-10-04T01:10:47.383Z,0
2017-10-04T01:11:48.753Z,0
2017-10-04T01:12:50.185Z,0
2017-10-04T01:13:51.573Z,0
2017-10-04T01:14:53.005Z,0
2017-10-04T01:15:54.441Z,0
2017-10-04T01:16:55.855Z,0
2017-10-04T01:17:57.302Z,0
2017-10-04T01:18:58.754Z,0
2017-10-04T01:20:00.162Z,0
2017-10-04T01:21:01.567Z,0
2017-10-04T01:22:02.989Z,0
2017-10-04T01:23:04.433Z,0
2017-10-04T01:24:05.823Z,0
2017-10-04T01:25:07.243Z,0
2017-10-04T01:26:08.675Z,0
2017-10-04T01:27:10.109Z,0
2017-10-04T01:28:11.530Z,0
2017-10-04T01:29:12.924Z,0
2017-10-04T01:30:14.394Z,0
2017-10-04T01:31:15.842Z,0
2017-10-04T01:32:17.275Z,0
2017-10-04T01:33:18.723Z,0
2017-10-04T01:34:20.132Z,0
2017-10-04T01:35:21.552Z,0
2017-10-04T01:36:22.958Z,0
2017-10-04T01:37:24.383Z,0
2017-10-04T01:38:25.761Z,0
2017-10-04T01:39:27.194Z,0
2017-10-04T01:40:28.572Z,0
2017-10-04T01:41:29.967Z,0
2017-10-04T01:42:31.386Z,0
2017-10-04T01:43:32.791Z,0
2017-10-04T01:44:34.212Z,0
2017-10-04T01:45:35.634Z,0
2017-10-04T01:46:37.023Z,0
2017-10-04T01:47:38.447Z,0
2017-10-04T01:48:39.880Z,0
2017-10-04T01:49:41.560Z,0
2017-10-04T01:50:43.017Z,0
2017-10-04T01:51:44.445Z,0
2017-10-04T01:52:45.839Z,0
2017-10-04T01:53:47.265Z,0
2017-10-04T01:54:48.691Z,0
2017-10-04T01:55:50.143Z,0
2017-10-04T01:56:51.573Z,0
2017-10-04T01:57:52.985Z,0
2017-10-04T01:58:54.431Z,0
2017-10-04T01:59:55.850Z,0
2017-10-04T02:00:57.243Z,0
2017-10-04T02:01:58.629Z,0
2017-10-04T02:03:00.015Z,0
2017-10-04T02:04:01.422Z,0
2017-10-04T02:05:02.886Z,0
2017-10-04T02:06:04.335Z,0
2017-10-04T02:07:05.773Z,0
2017-10-04T02:08:07.267Z,0
2017-10-04T02:09:08.745Z,0
2017-10-04T02:10:10.243Z,0
2017-10-04T02:11:11.635Z,0
2017-10-04T02:12:13.065Z,0
2017-10-04T02:13:14.503Z,0
2017-10-04T02:14:15.897Z,0
2017-10-04T02:15:17.361Z,0
2017-10-04T02:16:18.773Z,0
2017-10-04T02:17:20.184Z,0
2017-10-04T02:18:21.632Z,0
2017-10-04T02:19:23.056Z,0
2017-10-04T02:20:24.461Z,0
2017-10-04T02:21:25.843Z,0
2017-10-04T02:22:27.304Z,0
2017-10-04T02:23:28.767Z,0
2017-10-04T02:24:30.182Z,0
2017-10-04T02:25:31.600Z,0
2017-10-04T02:26:33.059Z,0
2017-10-04T02:27:34.445Z,0
2017-10-04T02:28:35.850Z,0
2017-10-04T02:29:37.256Z,0
2017-10-04T02:30:38.703Z,0
2017-10-04T02:31:40.095Z,0
2017-10-04T02:32:41.514Z,0
2017-10-04T02:33:42.926Z,0
2017-10-04T02:34:44.366Z,0
2017-10-04T02:35:45.773Z,0
2017-10-04T02:36:47.196Z,0
2017-10-04T02:37:48.645Z,0
2017-10-04T02:38:50.085Z,0
2017-10-04T02:39:51.505Z,0
2017-10-04T02:40:52.922Z,0
2017-10-04T02:41:54.366Z,0
2017-10-04T02:42:55.758Z,0
2017-10-04T02:43:57.202Z,0
2017-10-04T02:44:58.616Z,0
2017-10-04T02:46:00.020Z,0
2017-10-04T02:47:01.406Z,0
2017-10-04T02:48:02.827Z,0
2017-10-04T02:49:04.261Z,0
2017-10-04T02:50:05.650Z,0
2017-10-04T02:51:07.066Z,0
2017-10-04T02:52:08.492Z,0
2017-10-04T02:53:09.894Z,0
2017-10-04T02:54:11.325Z,0
2017-10-04T02:55:12.804Z,0
2017-10-04T02:56:14.259Z,0
2017-10-04T02:57:15.712Z,0
2017-10-04T02:58:17.153Z,0
2017-10-04T02:59:18.525Z,0
2017-10-04T03:00:19.931Z,0
2017-10-04T03:01:21.371Z,0
2017-10-04T03:02:22.801Z,0
2017-10-04T03:03:24.277Z,0
2017-10-04T03:04:25.684Z,0
2017-10-04T03:05:27.082Z,0
2017-10-04T03:06:28.502Z,0
2017-10-04T03:07:29.927Z,0
2017-10-04T03:08:31.332Z,0
2017-10-04T03:09:32.751Z,0
2017-10-04T03:10:34.132Z,0
2017-10-04T03:11:35.566Z,0
2017-10-04T03:12:37.009Z,0
2017-10-04T03:13:38.400Z,0
2017-10-04T03:14:39.900Z,0
2017-10-04T03:15:41.318Z,0
2017-10-04T03:16:42.743Z,0
2017-10-04T03:17:44.151Z,0
2017-10-04T03:18:45.601Z,0
2017-10-04T03:19:47.018Z,0
2017-10-04T03:20:48.475Z,0
2017-10-04T03:21:49.896Z,0
2017-10-04T03:22:51.312Z,0
2017-10-04T03:23:52.754Z,0
2017-10-04T03:24:54.133Z,0
2017-10-04T03:25:55.533Z,0
2017-10-04T03:26:56.950Z,0
2017-10-04T03:27:58.356Z,0
2017-10-04T03:28:59.769Z,0
2017-10-04T03:30:01.214Z,0
2017-10-04T03:31:02.641Z,0
2017-10-04T03:32:04.045Z,0
2017-10-04T03:33:05.434Z,0
2017-10-04T03:34:06.848Z,0
2017-10-04T03:35:08.285Z,0
2017-10-04T03:36:09.702Z,0
2017-10-04T03:37:11.104Z,0
2017-10-04T03:38:12.552Z,0
2017-10-04T03:39:13.973Z,0
2017-10-04T03:40:15.616Z,0
2017-10-04T03:41:17.027Z,0
2017-10-04T03:42:18.501Z,0
2017-10-04T03:43:19.915Z,0
2017-10-04T03:44:21.303Z,0
2017-10-04T03:45:22.716Z,0
2017-10-04T03:46:24.150Z,0
2017-10-04T03:47:25.583Z,0
2017-10-04T03:48:27.018Z,0
2017-10-04T03:49:28.444Z,0
2017-10-04T03:50:29.872Z,0
2017-10-04T03:51:31.256Z,0
2017-10-04T03:52:32.747Z,0
2017-10-04T03:53:34.122Z,0
2017-10-04T03:54:35.565Z,0
2017-10-04T03:55:36.959Z,0
2017-10-04T03:56:38.416Z,0
2017-10-04T03:57:39.824Z,0
2017-10-04T03:58:41.279Z,0
2017-10-04T03:59:42.715Z,0
2017-10-04T04:00:44.090Z,0
2017-10-04T04:01:45.523Z,0
2017-10-04T04:02:46.909Z,0
2017-10-04T04:03:48.294Z,0
2017-10-04T04:04:49.696Z,0
2017-10-04T04:05:51.133Z,0
2017-10-04T04:06:52.553Z,0
2017-10-04T04:07:53.968Z,0
2017-10-04T04:08:55.387Z,0
2017-10-04T04:09:56.777Z,0
2017-10-04T04:10:58.239Z,0
2017-10-04T04:11:59.674Z,0
2017-10-04T04:13:01.067Z,0
2017-10-04T04:14:02.526Z,0
2017-10-04T04:15:03.986Z,0
2017-10-04T04:16:05.468Z,0
2017-10-04T04:17:06.924Z,0
2017-10-04T04:18:08.374Z,0
2017-10-04T04:19:09.763Z,0
2017-10-04T04:20:11.212Z,0
2017-10-04T04:21:12.700Z,0
2017-10-04T04:22:14.069Z,0
2017-10-04T04:23:15.529Z,0
2017-10-04T04:24:16.916Z,0
2017-10-04T04:25:18.371Z,0
2017-10-04T04:26:19.759Z,0
2017-10-04T04:27:21.166Z,0
2017-10-04T04:28:22.627Z,0
2017-10-04T04:29:24.078Z,0
2017-10-04T04:30:25.515Z,0
2017-10-04T04:31:26.889Z,0
2017-10-04T04:32:28.376Z,0
2017-10-04T04:33:29.812Z,0
2017-10-04T04:34:31.233Z,0
2017-10-04T04:35:32.678Z,0
2017-10-04T04:36:34.080Z,0
2017-10-04T04:37:35.499Z,0
2017-10-04T04:38:36.931Z,0
2017-10-04T04:39:38.391Z,0
2017-10-04T04:40:39.796Z,0
2017-10-04T04:41:41.218Z,0
2017-10-04T04:42:42.649Z,0
2017-10-04T04:43:44.049Z,0
2017-10-04T04:44:45.437Z,0
2017-10-04T04:45:46.847Z,0
2017-10-04T04:46:48.290Z,0
2017-10-04T04:47:49.724Z,0
2017-10-04T04:48:51.113Z,0
2017-10-04T04:49:52.568Z,0
2017-10-04T04:50:53.965Z,0
2017-10-04T04:51:55.385Z,0
2017-10-04T04:52:56.785Z,0
2017-10-04T04:53:58.219Z,0
2017-10-04T04:54:59.640Z,0
2017-10-04T04:56:01.076Z,0
2017-10-04T04:57:02.550Z,0
2017-10-04T04:58:03.936Z,0
2017-10-04T04:59:05.361Z,0
2017-10-04T05:00:06.795Z,0
2017-10-04T05:01:08.235Z,0
2017-10-04T05:02:09.709Z,0
2017-10-04T05:03:11.117Z,0
2017-10-04T05:04:12.518Z,0
2017-10-04T05:05:13.947Z,0
2017-10-04T05:06:15.328Z,0
2017-10-04T05:07:16.721Z,0
2017-10-04T05:08:18.146Z,4
2017-10-04T05:09:19.604Z,4
2017-10-04T05:10:21.025Z,4
2017-10-04T05:11:22.434Z,8
2017-10-04T05:12:23.856Z,4
2017-10-04T05:13:25.273Z,8
2017-10-04T05:14:26.675Z,8
2017-10-04T05:15:28.112Z,12
2017-10-04T05:16:29.560Z,16
2017-10-04T05:17:30.966Z,16
2017-10-04T05:18:32.405Z,24
2017-10-04T05:19:33.808Z,28
2017-10-04T05:20:35.246Z,36
2017-10-04T05:21:36.684Z,44
2017-10-04T05:22:38.103Z,48
2017-10-04T05:23:39.532Z,56
2017-10-04T05:24:40.971Z,64
2017-10-04T05:25:42.392Z,72
2017-10-04T05:26:43.811Z,80
2017-10-04T05:27:45.267Z,92
2017-10-04T05:28:46.677Z,100
2017-10-04T05:29:48.111Z,112
2017-10-04T05:30:49.549Z,124
2017-10-04T05:31:50.976Z,136
2017-10-04T05:32:52.368Z,148
2017-10-04T05:33:53.801Z,160
2017-10-04T05:34:55.238Z,172
2017-10-04T05:35:56.647Z,188
2017-10-04T05:36:58.100Z,204
2017-10-04T05:37:59.520Z,224
2017-10-04T05:39:00.959Z,248
2017-10-04T05:40:02.357Z,268
2017-10-04T05:41:03.768Z,288
2017-10-04T05:42:05.179Z,316
2017-10-04T05:43:06.591Z,344
2017-10-04T05:44:08.043Z,376
2017-10-04T05:45:09.467Z,408
2017-10-04T05:46:10.860Z,448
2017-10-04T05:47:12.267Z,496
2017-10-04T05:48:13.642Z,552
2017-10-04T05:49:15.076Z,608
2017-10-04T05:50:16.492Z,668
2017-10-04T05:51:17.896Z,732
2017-10-04T05:52:19.315Z,788
2017-10-04T05:53:20.716Z,840
2017-10-04T05:54:22.189Z,884
2017-10-04T05:55:23.659Z,932
2017-10-04T05:56:25.113Z,964
2017-10-04T05:57:26.526Z,1000
2017-10-04T05:58:27.989Z,1032
2017-10-04T05:59:29.371Z,1068
2017-10-04T06:00:30.755Z,1084
2017-10-04T06:01:32.173Z,1104
2017-10-04T06:02:33.654Z,1124
2017-10-04T06:03:35.102Z,1144
2017-10-04T06:04:36.534Z,1168
2017-10-04T06:05:37.965Z,1192
2017-10-04T06:06:39.361Z,1232
2017-10-04T06:07:40.764Z,1296
2017-10-04T06:08:42.181Z,1336
2017-10-04T06:09:43.678Z,1388
2017-10-04T06:10:45.104Z,1392
2017-10-04T06:11:46.536Z,1368
2017-10-04T06:12:47.970Z,1372
2017-10-04T06:13:49.370Z,1412
2017-10-04T06:14:50.793Z,1444
2017-10-04T06:15:52.240Z,1504
2017-10-04T06:16:53.683Z,1592
2017-10-04T06:17:55.096Z,1728
2017-10-04T06:18:56.480Z,1896
2017-10-04T06:19:57.949Z,2072
2017-10-04T06:20:59.385Z,2184
2017-10-04T06:22:00.785Z,2228
2017-10-04T06:23:02.240Z,2320
2017-10-04T06:24:03.664Z,2476
2017-10-04T06:25:05.089Z,2664
2017-10-04T06:26:06.523Z,2884
2017-10-04T06:27:07.989Z,3256
2017-10-04T06:28:09.411Z,3868
2017-10-04T06:29:10.827Z,4604
2017-10-04T06:30:12.222Z,5224
2017-10-04T06:31:13.691Z,5516
2017-10-04T06:32:15.127Z,4800
2017-10-04T06:33:16.560Z,3936
2017-10-04T06:34:17.998Z,3436
2017-10-04T06:35:19.432Z,3864
2017-10-04T06:36:20.878Z,4832
2017-10-04T06:37:22.290Z,4620
2017-10-04T06:38:23.739Z,4240
2017-10-04T06:39:25.138Z,4476
2017-10-04T06:40:26.548Z,4808
2017-10-04T06:41:28.010Z,4872
2017-10-04T06:42:29.418Z,4780
2017-10-04T06:43:30.842Z,4772
2017-10-04T06:44:32.257Z,5168
2017-10-04T06:45:33.684Z,5512
2017-10-04T06:46:35.110Z,5272
2017-10-04T06:47:36.547Z,4984
2017-10-04T06:48:37.985Z,5164
2017-10-04T06:49:39.638Z,5020
2017-10-04T06:50:41.072Z,5200
2017-10-04T06:51:42.460Z,5240
2017-10-04T06:52:43.911Z,5468
2017-10-04T06:53:45.308Z,5724
2017-10-04T06:54:46.760Z,5820
2017-10-04T06:55:48.200Z,6144
2017-10-04T06:56:49.639Z,6596
2017-10-04T06:57:51.059Z,6424
2017-10-04T06:58:52.446Z,6792
2017-10-04T06:59:53.890Z,7072
2017-10-04T07:00:55.305Z,7916
2017-10-04T07:01:56.736Z,7448
2017-10-04T07:02:58.207Z,7176
2017-10-04T07:03:59.578Z,7864
2017-10-04T07:05:01.018Z,7084
2017-10-04T07:06:02.456Z,6372
2017-10-04T07:07:03.908Z,6084
2017-10-04T07:08:05.319Z,6192
2017-10-04T07:09:06.732Z,6040
2017-10-04T07:10:08.185Z,6104
2017-10-04T07:11:09.597Z,6132
2017-10-04T07:12:10.992Z,6404
2017-10-04T07:13:12.419Z,6340
2017-10-04T07:14:13.844Z,6292
2017-10-04T07:15:15.327Z,6176
2017-10-04T07:16:16.776Z,6056
2017-10-04T07:17:18.192Z,5960
2017-10-04T07:18:19.636Z,5968
2017-10-04T07:19:21.069Z,6028
2017-10-04T07:20:22.463Z,6256
2017-10-04T07:21:23.897Z,6248
2017-10-04T07:22:25.322Z,5996
2017-10-04T07:23:26.716Z,6208
2017-10-04T07:24:28.138Z,6324
2017-10-04T07:25:29.580Z,6116
2017-10-04T07:26:31.003Z,6200
2017-10-04T07:27:32.418Z,6268
2017-10-04T07:28:33.863Z,6328
2017-10-04T07:29:35.275Z,6968
2017-10-04T07:30:36.730Z,7616
2017-10-04T07:31:38.213Z,8432
2017-10-04T07:32:39.637Z,10084
2017-10-04T07:33:41.035Z,10924
2017-10-04T07:34:42.451Z,10880
2017-10-04T07:35:43.871Z,8204
2017-10-04T07:36:45.296Z,7092
2017-10-04T07:37:46.699Z,8328
2017-10-04T07:38:48.153Z,7616
2017-10-04T07:39:49.590Z,7040
2017-10-04T07:40:51.030Z,7124
2017-10-04T07:41:52.435Z,6168
2017-10-04T07:42:53.937Z,7344
2017-10-04T07:43:55.365Z,8016
2017-10-04T07:44:56.779Z,10444
2017-10-04T07:45:58.255Z,12816
2017-10-04T07:46:59.688Z,13844
2017-10-04T07:48:01.105Z,15392
2017-10-04T07:49:02.536Z,15456
2017-10-04T07:50:04.974Z,17312
2017-10-04T07:51:06.483Z,19424
2017-10-04T07:52:07.873Z,21408
2017-10-04T07:53:09.271Z,20032
2017-10-04T07:54:11.325Z,16416
2017-10-04T07:55:12.780Z,18976
2017-10-04T07:56:14.194Z,15264
2017-10-04T07:57:15.596Z,14308
2017-10-04T07:58:17.027Z,12748
2017-10-04T07:59:18.533Z,12832
2017-10-04T08:00:19.941Z,11048
2017-10-04T08:02:02.326Z,11832
2017-10-04T08:03:03.710Z,12620
2017-10-04T08:04:05.089Z,13604
2017-10-04T08:05:06.474Z,14076
2017-10-04T08:06:07.851Z,14696
2017-10-04T08:07:09.230Z,14080
2017-10-04T08:08:10.612Z,14496
2017-10-04T08:09:11.993Z,15584
2017-10-04T08:10:13.375Z,15008
2017-10-04T08:11:14.760Z,14744
2017-10-04T08:12:16.203Z,14128
2017-10-04T08:13:17.584Z,13892
2017-10-04T08:14:18.985Z,14376
2017-10-04T08:15:20.368Z,14388
2017-10-04T08:16:21.755Z,14288
2017-10-04T08:17:23.138Z,14228
2017-10-04T08:18:24.521Z,14232
2017-10-04T08:19:25.948Z,13960
2017-10-04T08:20:27.383Z,14200
2017-10-04T08:21:28.854Z,13056
2017-10-04T08:22:30.279Z,13100
2017-10-04T08:23:31.698Z,12524
2017-10-04T08:24:33.226Z,12084
2017-10-04T08:25:34.637Z,11276
2017-10-04T08:26:36.087Z,10604
2017-10-04T08:27:37.502Z,10576
2017-10-04T08:28:39.095Z,10692
2017-10-04T08:29:40.565Z,10564
2017-10-04T08:30:42.009Z,10684
2017-10-04T08:31:43.537Z,11092
2017-10-04T08:32:45.006Z,11600
2017-10-04T08:33:46.447Z,11880
2017-10-04T08:34:47.839Z,12172
2017-10-04T08:35:49.226Z,12664
2017-10-04T08:36:50.610Z,13324
2017-10-04T08:37:52.008Z,13804
2017-10-04T08:38:53.483Z,14116
2017-10-04T08:39:54.937Z,13440
2017-10-04T08:40:56.357Z,12780
2017-10-04T08:41:57.759Z,12028
2017-10-04T08:42:59.194Z,11632
2017-10-04T08:44:00.602Z,11628
2017-10-04T08:45:02.036Z,11380
2017-10-04T08:46:03.474Z,10788
2017-10-04T08:47:04.935Z,10412
2017-10-04T08:48:06.369Z,10268
2017-10-04T08:49:07.796Z,10172
2017-10-04T08:50:09.199Z,10404
2017-10-04T08:51:10.647Z,10328
2017-10-04T08:52:12.107Z,9904
2017-10-04T08:53:13.638Z,10216
2017-10-04T08:54:15.061Z,11128
2017-10-04T08:55:16.473Z,12924
2017-10-04T08:56:17.886Z,13612
2017-10-04T08:57:19.307Z,14444
2017-10-04T08:58:20.911Z,16224
2017-10-04T08:59:22.402Z,18048
2017-10-04T09:00:23.848Z,15776
2017-10-04T09:01:25.267Z,12764
2017-10-04T09:02:26.713Z,12984
2017-10-04T09:04:09.089Z,11288
2017-10-04T09:05:10.464Z,12688
2017-10-04T09:06:11.843Z,16288
2017-10-04T09:07:13.228Z,14952
2017-10-04T09:08:14.610Z,16160
2017-10-04T09:09:15.983Z,19520
2017-10-04T09:10:17.364Z,16928
2017-10-04T09:11:18.758Z,26688
2017-10-04T09:12:20.146Z,20352
2017-10-04T09:13:21.524Z,22624
2017-10-04T09:14:22.905Z,17216
2017-10-04T09:15:24.293Z,23072
2017-10-04T09:16:25.677Z,14636
2017-10-04T09:17:27.055Z,13384
2017-10-04T09:18:28.465Z,15840
2017-10-04T09:19:29.860Z,17152
2017-10-04T09:20:31.264Z,27264
2017-10-04T09:21:32.707Z,28704
2017-10-04T09:22:34.192Z,28704
2017-10-04T09:23:35.620Z,29024
2017-10-04T09:25:18.018Z,38432
2017-10-04T09:26:19.422Z,23552
2017-10-04T09:27:20.802Z,22016
2017-10-04T09:28:22.179Z,23168
2017-10-04T09:29:23.568Z,25568
2017-10-04T09:30:24.952Z,26208
2017-10-04T09:31:26.333Z,21472
2017-10-04T09:32:27.715Z,21696
2017-10-04T09:33:29.098Z,19616
2017-10-04T09:34:30.484Z,21088
2017-10-04T09:35:31.862Z,24160
2017-10-04T09:36:33.245Z,23744
2017-10-04T09:37:34.627Z,24832
2017-10-04T09:38:36.009Z,22528
2017-10-04T09:39:37.390Z,20096
2017-10-04T09:40:38.887Z,18304
2017-10-04T09:41:40.265Z,18176
2017-10-04T09:42:41.648Z,19680
2017-10-04T09:43:43.100Z,20000
2017-10-04T09:44:44.562Z,19680
2017-10-04T09:45:46.035Z,18816
2017-10-04T09:46:47.584Z,20704
2017-10-04T09:47:49.089Z,17152
2017-10-04T09:48:50.477Z,14868
2017-10-04T09:49:51.877Z,14952
2017-10-04T09:50:53.302Z,11852
2017-10-04T09:51:54.746Z,12040
2017-10-04T09:52:56.189Z,13648
2017-10-04T09:53:57.612Z,13520
2017-10-04T09:54:59.110Z,12132
2017-10-04T09:56:00.658Z,11108
2017-10-04T09:57:02.381Z,11984
2017-10-04T09:58:03.871Z,11748
2017-10-04T09:59:05.304Z,9208
2017-10-04T10:00:06.704Z,8200
2017-10-04T10:01:08.116Z,6788
2017-10-04T10:02:09.546Z,7692
2017-10-04T10:03:10.980Z,5416
2017-10-04T10:04:12.444Z,4792
2017-10-04T10:05:13.969Z,7284
2017-10-04T10:06:15.376Z,8200
2017-10-04T10:07:16.854Z,7328
2017-10-04T10:08:18.300Z,9572
2017-10-04T10:09:19.743Z,10524
2017-10-04T10:10:21.164Z,7584
2017-10-04T10:11:22.601Z,9340
2017-10-04T10:12:24.051Z,10912
2017-10-04T10:13:25.494Z,11304
2017-10-04T10:14:26.936Z,11884
2017-10-04T10:15:28.389Z,11564
2017-10-04T10:16:29.802Z,10812
2017-10-04T10:17:32.530Z,9644
2017-10-04T10:18:32.676Z,7776
2017-10-04T10:19:34.134Z,6096
2017-10-04T10:20:35.571Z,7404
2017-10-04T10:21:37.001Z,11132
2017-10-04T10:22:38.451Z,12760
2017-10-04T10:23:39.950Z,13428
2017-10-04T10:24:41.408Z,13368
2017-10-04T10:25:42.826Z,12528
2017-10-04T10:27:25.209Z,11668
2017-10-04T10:28:26.589Z,12680
2017-10-04T10:29:27.969Z,12804
2017-10-04T10:30:29.369Z,13100
2017-10-04T10:31:31.021Z,13560
2017-10-04T10:32:34.321Z,12724
2017-10-04T10:33:35.728Z,12680
2017-10-04T10:34:37.105Z,12924
2017-10-04T10:35:38.534Z,13844
2017-10-04T10:36:39.863Z,14420
2017-10-04T10:37:41.281Z,14152
2017-10-04T10:38:42.879Z,15352
2017-10-04T10:39:44.488Z,14064
2017-10-04T10:40:45.896Z,11620
2017-10-04T10:41:47.357Z,11164
2017-10-04T10:43:29.785Z,12592
2017-10-04T10:44:31.158Z,13288
2017-10-04T10:45:32.539Z,13824
2017-10-04T10:46:33.983Z,11144
2017-10-04T10:47:35.362Z,11552
2017-10-04T10:48:36.775Z,14896
2017-10-04T10:49:38.155Z,14624
2017-10-04T10:50:39.646Z,12324
2017-10-04T10:51:40.993Z,14320
2017-10-04T10:52:42.436Z,15104
2017-10-04T10:53:43.846Z,12332
2017-10-04T10:54:45.231Z,9188
2017-10-04T10:55:46.623Z,8212
2017-10-04T10:56:48.011Z,7928
2017-10-04T10:57:49.452Z,11136
2017-10-04T10:58:51.044Z,17920
2017-10-04T10:59:52.504Z,20896
2017-10-04T11:00:53.961Z,19296
2017-10-04T11:01:55.382Z,20224
2017-10-04T11:02:56.781Z,21888
2017-10-04T11:03:58.204Z,23200
2017-10-04T11:04:59.659Z,26912
2017-10-04T11:06:01.102Z,22176
2017-10-04T11:07:02.529Z,26720
2017-10-04T11:08:03.998Z,28384
2017-10-04T11:09:05.408Z,25408
2017-10-04T11:10:06.829Z,22016
2017-10-04T11:11:08.283Z,24288
2017-10-04T11:12:09.714Z,21952
2017-10-04T11:13:11.131Z,25792
2017-10-04T11:14:12.546Z,22592
2017-10-04T11:15:13.995Z,22272
2017-10-04T11:16:15.453Z,23808
2017-10-04T11:17:16.860Z,22816
2017-10-04T11:18:18.258Z,23232
2017-10-04T11:19:19.625Z,24736
2017-10-04T11:20:21.021Z,27584
2017-10-04T11:21:22.435Z,22432
2017-10-04T11:22:23.831Z,23552
2017-10-04T11:23:25.209Z,19808
2017-10-04T11:24:26.596Z,17888
2017-10-04T11:25:27.976Z,18944
2017-10-04T11:26:29.360Z,20480
2017-10-04T11:27:30.746Z,19136
2017-10-04T11:28:32.127Z,17760
2017-10-04T11:29:33.509Z,18208
2017-10-04T11:30:34.894Z,22496
2017-10-04T11:31:36.275Z,19424
2017-10-04T11:32:37.660Z,16032
2017-10-04T11:33:39.054Z,16512
2017-10-04T11:34:40.436Z,17536
2017-10-04T11:35:41.814Z,14704
2017-10-04T11:36:43.197Z,16160
2017-10-04T11:37:44.576Z,17376
2017-10-04T11:38:45.965Z,22688
2017-10-04T11:39:47.348Z,23392
2017-10-04T11:40:48.735Z,26400
2017-10-04T11:41:50.120Z,25824
2017-10-04T11:42:51.501Z,21824
2017-10-04T11:43:53.662Z,21984
2017-10-04T11:44:55.113Z,28512
2017-10-04T11:45:56.570Z,29952
2017-10-04T11:46:57.972Z,31296
2017-10-04T11:47:59.453Z,24928
2017-10-04T11:49:00.818Z,22592
2017-10-04T11:50:02.278Z,20192
2017-10-04T11:51:03.730Z,18144
2017-10-04T11:52:05.158Z,19136
2017-10-04T11:53:06.579Z,20896
2017-10-04T11:54:08.035Z,24096
2017-10-04T11:55:09.536Z,18720
2017-10-04T11:56:10.943Z,17120
2017-10-04T11:57:12.520Z,17280
2017-10-04T11:58:14.027Z,20640
2017-10-04T11:59:15.435Z,16832
2017-10-04T12:00:16.833Z,13268
2017-10-04T12:01:18.221Z,12224
2017-10-04T12:02:19.736Z,11756
2017-10-04T12:03:21.203Z,12604
2017-10-04T12:04:22.632Z,14072
2017-10-04T12:05:24.145Z,13688
2017-10-04T12:06:25.556Z,12092
2017-10-04T12:07:27.010Z,11196
2017-10-04T12:08:28.408Z,12612
2017-10-04T12:09:29.897Z,11068
2017-10-04T12:10:31.427Z,14004
2017-10-04T12:11:32.844Z,19840
2017-10-04T12:12:34.299Z,25760
2017-10-04T12:13:35.714Z,20224
2017-10-04T12:14:37.158Z,18112
2017-10-04T12:15:38.634Z,17184
2017-10-04T12:16:40.052Z,15000
2017-10-04T12:17:41.609Z,12028
2017-10-04T12:18:43.312Z,12500
2017-10-04T12:19:45.257Z,15460
2017-10-04T12:20:46.745Z,17600
2017-10-04T12:21:48.161Z,17632
2017-10-04T12:22:49.662Z,14076
2017-10-04T12:23:51.046Z,10844
2017-10-04T12:24:52.569Z,13256
2017-10-04T12:25:54.080Z,17312
2017-10-04T12:26:55.491Z,15968
2017-10-04T12:27:56.894Z,15440
2017-10-04T12:28:58.359Z,14852
2017-10-04T12:29:59.877Z,13944
2017-10-04T12:31:01.295Z,17536
2017-10-04T12:32:02.813Z,19360
2017-10-04T12:33:04.263Z,19136
2017-10-04T12:34:05.742Z,18880
2017-10-04T12:35:07.153Z,19104
2017-10-04T12:36:08.567Z,19968
2017-10-04T12:37:10.040Z,19136
2017-10-04T12:38:11.468Z,18688
2017-10-04T12:39:12.864Z,17440
2017-10-04T12:40:14.330Z,16000
2017-10-04T12:41:15.753Z,14284
2017-10-04T12:42:17.170Z,14216
2017-10-04T12:43:18.611Z,13808
2017-10-04T12:44:20.026Z,13080
2017-10-04T12:45:21.480Z,14032
2017-10-04T12:46:22.913Z,17536
2017-10-04T12:47:24.348Z,17472
2017-10-04T12:48:25.793Z,15572
2017-10-04T12:49:27.238Z,15536
2017-10-04T12:50:28.670Z,16448
2017-10-04T12:51:30.126Z,17024
2017-10-04T12:52:31.581Z,15480
2017-10-04T12:53:33.021Z,11996
2017-10-04T12:54:34.493Z,9200
2017-10-04T12:55:35.920Z,7520
2017-10-04T12:56:37.350Z,7552
2017-10-04T12:57:38.761Z,9744
2017-10-04T12:58:40.196Z,12820
2017-10-04T12:59:41.597Z,13648
2017-10-04T13:00:43.053Z,13124
2017-10-04T13:01:44.497Z,11336
2017-10-04T13:02:45.901Z,10412
2017-10-04T13:03:47.337Z,10936
2017-10-04T13:04:48.759Z,13756
2017-10-04T13:05:50.177Z,13928
2017-10-04T13:06:51.617Z,13184
2017-10-04T13:07:53.632Z,15808
2017-10-04T13:08:55.091Z,13992
2017-10-04T13:09:56.504Z,11904
2017-10-04T13:10:57.892Z,11716
2017-10-04T13:11:59.371Z,12152
2017-10-04T13:13:00.773Z,12704
2017-10-04T13:14:02.199Z,12448
2017-10-04T13:15:03.634Z,11448
2017-10-04T13:16:05.063Z,11112
2017-10-04T13:17:06.465Z,9460
2017-10-04T13:18:07.848Z,9968
2017-10-04T13:19:09.348Z,20672
2017-10-04T13:20:10.804Z,9236
2017-10-04T13:21:12.215Z,11872
2017-10-04T13:22:13.650Z,16192
2017-10-04T13:23:15.110Z,16928
2017-10-04T13:24:16.701Z,16192
2017-10-04T13:25:18.144Z,15408
2017-10-04T13:26:19.667Z,14064
2017-10-04T13:27:21.059Z,12352
2017-10-04T13:28:22.468Z,10244
2017-10-04T13:29:23.888Z,9724
2017-10-04T13:30:25.301Z,8864
2017-10-04T13:31:26.740Z,7560
2017-10-04T13:32:28.143Z,7124
2017-10-04T13:33:29.583Z,8248
2017-10-04T13:34:31.032Z,8700
2017-10-04T13:35:32.461Z,9096
2017-10-04T13:36:33.893Z,9100
2017-10-04T13:37:35.301Z,7672
2017-10-04T13:38:36.713Z,6748
2017-10-04T13:39:38.089Z,6988
2017-10-04T13:40:39.540Z,8088
2017-10-04T13:41:40.985Z,8972
2017-10-04T13:42:42.423Z,8924
2017-10-04T13:43:43.865Z,11580
2017-10-04T13:44:45.287Z,10716
2017-10-04T13:45:46.724Z,10196
2017-10-04T13:46:48.147Z,10236
2017-10-04T13:47:49.621Z,10056
2017-10-04T13:48:51.051Z,9092
2017-10-04T13:49:52.449Z,8320
2017-10-04T13:50:53.864Z,7188
2017-10-04T13:51:55.295Z,6672
2017-10-04T13:52:56.701Z,7264
2017-10-04T13:53:58.103Z,8520
2017-10-04T13:54:59.569Z,8868
2017-10-04T13:56:00.992Z,8664
2017-10-04T13:57:02.429Z,8356
2017-10-04T13:58:03.802Z,8416
2017-10-04T13:59:05.215Z,8316
2017-10-04T14:00:06.635Z,9520
2017-10-04T14:01:08.075Z,9572
2017-10-04T14:02:09.515Z,9132
2017-10-04T14:03:10.938Z,9496